Time;durP1;ratioP1;P1;durP2;ratioP2;P2;SDS_P1;SDS_P2;PMS_P1;PMS_P2;Temp;Humidity;BMP_temperature;BMP_pressure;BME280_temperature;BME280_humidity;BME280_pressure;Samples;Min_cycle;Max_cycle;Signal;HPM_P1;HPM_P2
2022/04/23 00:02:03;;;;;;;18.33;12.57;;;;;;;8.17;nan;101313.97;5022996;28;20026;-47
2022/04/23 00:04:30;;;;;;;17.75;11.60;;;;;;;8.12;nan;101321.00;5026917;28;20564;-45
2022/04/23 00:06:59;;;;;;;16.65;11.93;;;;;;;8.05;nan;101322.88;5027228;28;20581;-45
2022/04/23 00:09:25;;;;;;;17.38;11.95;;;;;;;8.03;nan;101317.78;5026283;28;20025;-47
2022/04/23 00:11:52;;;;;;;18.75;12.70;;;;;;;7.95;nan;101309.22;5027892;28;20240;-48
2022/04/23 00:14:18;;;;;;;19.80;12.77;;;;;;;7.86;nan;101312.16;5027295;28;20087;-49
2022/04/23 00:16:44;;;;;;;17.55;11.75;;;;;;;7.78;nan;101312.44;5027488;28;20025;-46
2022/04/23 00:19:10;;;;;;;17.35;12.02;;;;;;;7.72;nan;101315.13;5023064;28;20017;-48
2022/04/23 00:21:35;;;;;;;18.52;11.35;;;;;;;7.71;nan;101313.47;5029069;28;20151;-48
2022/04/23 00:24:01;;;;;;;18.73;11.80;;;;;;;7.71;nan;101322.31;5028501;28;20031;-49
2022/04/23 00:26:27;;;;;;;14.77;10.35;;;;;;;7.67;nan;101318.44;5025743;28;20037;-48
2022/04/23 00:28:53;;;;;;;17.00;10.98;;;;;;;7.58;nan;101312.56;5027168;28;20033;-46
2022/04/23 00:31:19;;;;;;;14.95;9.85;;;;;;;7.53;nan;101312.34;5025137;28;20034;-46
2022/04/23 00:33:44;;;;;;;15.27;10.60;;;;;;;7.51;nan;101310.94;5027863;28;20032;-47
2022/04/23 00:36:11;;;;;;;14.18;10.57;;;;;;;7.49;nan;101315.66;5024528;28;20025;-47
2022/04/23 00:38:39;;;;;;;15.50;9.63;;;;;;;7.47;nan;101313.22;5027689;28;20256;-45
2022/04/23 00:41:05;;;;;;;13.30;9.35;;;;;;;7.44;nan;101318.97;5024630;28;20060;-47
2022/04/23 00:43:35;;;;;;;15.55;8.65;;;;;;;7.41;nan;101323.94;5027528;28;20056;-46
2022/04/23 00:46:01;;;;;;;13.57;9.43;;;;;;;7.36;nan;101331.72;5024853;28;20029;-50
2022/04/23 00:48:28;;;;;;;12.65;8.52;;;;;;;7.28;nan;101319.47;5026564;28;20025;-48
2022/04/23 00:50:56;;;;;;;12.73;8.95;;;;;;;7.23;nan;101321.97;5023953;28;20033;-48
2022/04/23 00:53:22;;;;;;;13.27;9.38;;;;;;;7.17;nan;101318.28;5025713;28;20108;-46
2022/04/23 00:55:48;;;;;;;14.20;10.05;;;;;;;7.11;nan;101327.13;5026657;28;20953;-47
2022/04/23 00:58:16;;;;;;;15.00;9.18;;;;;;;7.08;nan;101329.41;5025302;28;20037;-48
2022/04/23 01:00:45;;;;;;;13.77;10.25;;;;;;;7.03;nan;101326.56;5023449;28;20028;-49
2022/04/23 01:03:14;;;;;;;15.38;10.50;;;;;;;7.00;nan;101332.28;5024427;28;20025;-48
2022/04/23 01:05:46;;;;;;;15.90;9.85;;;;;;;6.92;nan;101331.50;5026611;28;20026;-47
2022/04/23 01:08:17;;;;;;;14.07;10.43;;;;;;;6.90;nan;101330.88;5024806;28;20082;-50
2022/04/23 01:10:48;;;;;;;16.55;10.63;;;;;;;6.90;nan;101327.41;5026264;28;20049;-47
2022/04/23 01:13:14;;;;;;;13.93;10.32;;;;;;;6.87;nan;101328.66;5024507;28;20030;-48
2022/04/23 01:16:02;;;;;;;14.82;10.63;;;;;;;6.75;nan;101326.81;5025502;28;20380;-46
2022/04/23 01:18:28;;;;;;;15.77;10.70;;;;;;;6.78;nan;101326.41;5025978;28;20025;-47
2022/04/23 01:21:01;;;;;;;17.75;10.60;;;;;;;6.73;nan;101331.53;5024633;28;20068;-48
2022/04/23 01:23:27;;;;;;;17.15;11.18;;;;;;;6.70;nan;101331.97;5025271;28;20041;-46
2022/04/23 01:25:54;;;;;;;18.73;11.75;;;;;;;6.67;nan;101333.22;5027039;28;20079;-46
2022/04/23 01:28:24;;;;;;;14.63;10.88;;;;;;;6.62;nan;101325.81;5025026;28;20398;-47
2022/04/23 01:30:53;;;;;;;15.88;11.02;;;;;;;6.58;nan;101329.94;5023415;28;20036;-48
2022/04/23 01:33:20;;;;;;;15.25;11.45;;;;;;;6.55;nan;101326.88;5025481;28;20060;-46
2022/04/23 01:35:46;;;;;;;14.52;10.93;;;;;;;6.53;nan;101331.59;5024081;28;20056;-48
2022/04/23 01:38:13;;;;;;;17.08;11.13;;;;;;;6.51;nan;101330.97;5023147;28;20798;-50
2022/04/23 01:40:39;;;;;;;19.95;12.38;;;;;;;6.45;nan;101329.13;5026003;28;20030;-48
2022/04/23 01:43:05;;;;;;;16.63;11.88;;;;;;;6.42;nan;101325.03;5024774;28;20108;-47
2022/04/23 01:45:31;;;;;;;18.85;12.95;;;;;;;6.41;nan;101326.06;5025428;28;20033;-47
2022/04/23 01:47:57;;;;;;;17.73;12.30;;;;;;;6.37;nan;101324.84;5024379;28;20482;-46
2022/04/23 01:50:22;;;;;;;19.60;13.65;;;;;;;6.33;nan;101324.44;5024990;28;20445;-49
2022/04/23 01:52:48;;;;;;;19.77;13.70;;;;;;;6.31;nan;101323.81;5023706;28;20064;-49
2022/04/23 01:55:13;;;;;;;18.05;12.85;;;;;;;6.29;nan;101325.88;5023637;28;20386;-48
2022/04/23 01:57:39;;;;;;;20.02;13.82;;;;;;;6.29;nan;101331.22;5024037;28;20503;-50
2022/04/23 02:00:15;;;;;;;21.73;14.38;;;;;;;6.25;nan;101329.94;5025622;28;20135;-46
2022/04/23 02:02:42;;;;;;;19.52;14.15;;;;;;;6.21;nan;101335.91;5023313;28;20559;-46
2022/04/23 02:05:08;;;;;;;22.23;14.60;;;;;;;6.19;nan;101336.09;5024844;28;20072;-46
2022/04/23 02:07:37;;;;;;;25.33;15.65;;;;;;;6.19;nan;101335.28;5026665;28;20033;-49
2022/04/23 02:10:07;;;;;;;24.42;15.40;;;;;;;6.17;nan;101335.50;5025900;28;20025;-46
2022/04/23 02:12:33;;;;;;;22.20;15.50;;;;;;;6.16;nan;101327.72;5024275;28;20033;-46
2022/04/23 02:14:59;;;;;;;23.55;15.25;;;;;;;6.16;nan;101331.19;5022354;28;20036;-47
2022/04/23 02:17:37;;;;;;;21.48;14.55;;;;;;;6.12;nan;101334.47;5023680;28;20116;-46
2022/04/23 02:20:07;;;;;;;26.10;16.25;;;;;;;6.14;nan;101333.25;5023952;28;20021;-47
2022/04/23 02:22:33;;;;;;;24.38;16.55;;;;;;;6.05;nan;101323.81;5024092;28;20079;-49
2022/04/23 02:25:00;;;;;;;24.08;16.40;;;;;;;5.93;nan;101328.13;5024788;28;20044;-48
2022/04/23 02:27:26;;;;;;;24.30;16.48;;;;;;;5.87;nan;101327.03;5023658;28;20445;-45
2022/04/23 02:29:52;;;;;;;25.75;15.25;;;;;;;5.91;nan;101330.13;5022821;28;20387;-46
2022/04/23 02:32:18;;;;;;;22.27;15.95;;;;;;;5.95;nan;101326.91;5022633;28;20503;-45
2022/04/23 02:34:45;;;;;;;23.73;15.93;;;;;;;5.98;nan;101325.66;5023842;28;20030;-48
2022/04/23 02:37:11;;;;;;;25.30;15.98;;;;;;;5.97;nan;101326.69;5023813;28;20025;-47
2022/04/23 02:39:38;;;;;;;24.17;15.98;;;;;;;5.97;nan;101322.19;5024503;28;20051;-50
2022/04/23 02:42:05;;;;;;;21.90;14.95;;;;;;;5.98;nan;101328.31;5023124;28;20060;-46
2022/04/23 02:44:31;;;;;;;21.00;15.23;;;;;;;5.96;nan;101325.06;5023712;28;20096;-48
2022/04/23 02:46:56;;;;;;;25.80;15.85;;;;;;;5.93;nan;101326.28;5024306;28;21274;-47
2022/04/23 02:49:22;;;;;;;24.98;15.93;;;;;;;5.92;nan;101331.78;5024109;28;20025;-46
2022/04/23 02:51:48;;;;;;;23.30;15.52;;;;;;;5.89;nan;101322.34;5024870;28;20446;-48
2022/04/23 02:54:14;;;;;;;22.85;14.70;;;;;;;5.88;nan;101327.84;5022206;28;20025;-47
2022/04/23 02:56:39;;;;;;;21.77;15.48;;;;;;;5.84;nan;101331.94;5024250;28;20025;-46
2022/04/23 02:59:06;;;;;;;23.92;14.52;;;;;;;5.79;nan;101332.56;5022398;28;20122;-46
2022/04/23 03:01:34;;;;;;;20.95;13.95;;;;;;;5.75;nan;101332.16;5023731;28;20029;-47
2022/04/23 03:04:00;;;;;;;26.88;17.38;;;;;;;5.67;nan;101335.00;5021501;28;20021;-47
2022/04/23 03:06:33;;;;;;;21.98;15.63;;;;;;;5.58;nan;101325.56;5024503;28;20032;-48
2022/04/23 03:09:02;;;;;;;28.10;17.13;;;;;;;5.56;nan;101330.25;5023674;28;20063;-49
2022/04/23 03:11:29;;;;;;;23.88;16.77;;;;;;;5.51;nan;101327.38;5025122;28;20033;-45
2022/04/23 03:13:55;;;;;;;24.98;17.05;;;;;;;5.47;nan;101331.47;5022287;28;20089;-47
2022/04/23 03:16:21;;;;;;;24.48;15.13;;;;;;;5.46;nan;101329.81;5024445;28;20075;-46
2022/04/23 03:18:46;;;;;;;28.25;16.55;;;;;;;5.47;nan;101331.47;5025788;28;20037;-52
2022/04/23 03:21:12;;;;;;;26.48;15.90;;;;;;;5.49;nan;101328.59;5024882;28;20503;-49
2022/04/23 03:23:37;;;;;;;25.58;16.25;;;;;;;5.47;nan;101326.97;5023006;28;20030;-48
2022/04/23 03:26:03;;;;;;;38.25;24.10;;;;;;;5.40;nan;101320.00;5022342;28;20032;-47
2022/04/23 03:28:29;;;;;;;31.40;19.73;;;;;;;5.32;nan;101320.16;5023231;28;20025;-46
2022/04/23 03:30:55;;;;;;;32.53;21.98;;;;;;;5.25;nan;101330.78;5022355;28;20041;-47
2022/04/23 03:33:21;;;;;;;29.73;22.50;;;;;;;5.19;nan;101322.75;5023756;28;20056;-48
2022/04/23 03:35:46;;;;;;;28.33;18.05;;;;;;;5.15;nan;101317.84;5023206;28;20017;-51
2022/04/23 03:38:12;;;;;;;24.05;17.02;;;;;;;5.15;nan;101320.50;5023028;28;20029;-47
2022/04/23 03:40:39;;;;;;;28.10;15.80;;;;;;;5.17;nan;101330.94;5024393;28;20021;-47
2022/04/23 03:43:04;;;;;;;23.17;15.43;;;;;;;5.14;nan;101329.50;5022183;28;20033;-48
2022/04/23 03:45:32;;;;;;;21.15;14.45;;;;;;;5.12;nan;101328.88;5023593;28;20083;-47
2022/04/23 03:47:58;;;;;;;22.75;14.75;;;;;;;5.12;nan;101333.38;5022727;28;20026;-48
2022/04/23 03:50:24;;;;;;;19.15;13.02;;;;;;;5.11;nan;101329.09;5021459;28;20068;-49
2022/04/23 03:52:49;;;;;;;27.38;14.30;;;;;;;5.07;nan;101336.63;5023524;28;20095;-46
2022/04/23 03:55:15;;;;;;;25.50;14.20;;;;;;;5.04;nan;101331.72;5004972;28;20021;-47
2022/04/23 03:57:50;;;;;;;25.90;15.45;;;;;;;4.98;nan;101339.63;5023359;28;20429;-47
2022/04/23 04:00:19;;;;;;;22.80;14.90;;;;;;;4.98;nan;101335.13;5021778;28;20021;-45
2022/04/23 04:02:45;;;;;;;23.85;15.65;;;;;;;4.96;nan;101334.53;5022012;28;20541;-45
2022/04/23 04:05:11;;;;;;;23.20;14.82;;;;;;;4.97;nan;101340.66;5023010;28;20037;-46
2022/04/23 04:07:45;;;;;;;22.75;14.60;;;;;;;4.90;nan;101324.69;5023982;28;20479;-49
2022/04/23 04:10:14;;;;;;;22.83;15.15;;;;;;;4.85;nan;101335.09;5023634;28;20223;-49
2022/04/23 04:12:40;;;;;;;28.85;17.02;;;;;;;4.89;nan;101332.88;5018228;28;20053;-49
2022/04/23 04:15:07;;;;;;;27.00;16.88;;;;;;;4.89;nan;101339.00;5025268;28;20427;-46
2022/04/23 04:17:34;;;;;;;24.23;16.13;;;;;;;4.91;nan;101331.66;5023086;28;20029;-50
2022/04/23 04:20:00;;;;;;;25.65;16.70;;;;;;;4.91;nan;101331.66;5023971;28;20601;-48
2022/04/23 04:22:25;;;;;;;29.08;16.10;;;;;;;4.85;nan;101329.78;5024669;28;20104;-49
2022/04/23 04:24:51;;;;;;;26.50;17.05;;;;;;;4.84;nan;101328.13;5020511;28;20471;-48
2022/04/23 04:27:17;;;;;;;26.92;16.92;;;;;;;4.86;nan;101328.78;5021295;28;20017;-46
2022/04/23 04:29:43;;;;;;;26.67;15.25;;;;;;;4.89;nan;101336.34;5023458;28;20021;-45
2022/04/23 04:32:09;;;;;;;25.52;16.83;;;;;;;4.91;nan;101339.63;5024323;28;20188;-48
2022/04/23 04:34:34;;;;;;;26.48;16.20;;;;;;;4.91;nan;101336.13;5020742;28;20025;-46
2022/04/23 04:37:04;;;;;;;25.85;16.67;;;;;;;4.94;nan;101336.56;5027005;28;20025;-46
2022/04/23 04:39:31;;;;;;;26.50;15.82;;;;;;;4.96;nan;101334.53;5026973;28;20021;-49
2022/04/23 04:41:57;;;;;;;25.27;16.13;;;;;;;4.96;nan;101339.84;5027227;28;20066;-47
2022/04/23 04:44:22;;;;;;;24.60;15.15;;;;;;;4.98;nan;101343.09;5025197;28;20057;-48
2022/04/23 04:46:48;;;;;;;26.98;14.90;;;;;;;5.01;nan;101337.41;5024176;28;20081;-48
2022/04/23 04:49:13;;;;;;;27.10;17.85;;;;;;;5.05;nan;101328.03;5026651;28;20473;-48
2022/04/23 04:51:39;;;;;;;29.30;17.13;;;;;;;5.06;nan;101339.50;5023943;28;20033;-48
2022/04/23 04:54:05;;;;;;;25.77;15.88;;;;;;;5.11;nan;101337.88;5025489;28;20044;-48
2022/04/23 04:56:32;;;;;;;24.23;15.30;;;;;;;5.14;nan;101342.78;5024639;28;20059;-50
2022/04/23 04:58:57;;;;;;;28.15;17.33;;;;;;;5.19;nan;101341.38;5025653;28;20710;-48
2022/04/23 05:01:23;;;;;;;27.02;17.48;;;;;;;5.21;nan;101347.31;5026395;28;20021;-49
2022/04/23 05:03:48;;;;;;;30.70;18.33;;;;;;;5.23;nan;101342.63;5025007;28;20032;-48
2022/04/23 05:06:14;;;;;;;25.13;17.23;;;;;;;5.26;nan;101343.03;5025806;28;20125;-48
2022/04/23 05:08:40;;;;;;;26.05;18.25;;;;;;;5.32;nan;101338.75;5025160;28;20391;-47
2022/04/23 05:11:06;;;;;;;26.75;17.65;;;;;;;5.40;nan;101346.56;5026506;28;20041;-45
2022/04/23 05:13:31;;;;;;;30.30;19.05;;;;;;;5.47;nan;101352.72;5025407;28;20029;-49
2022/04/23 05:15:58;;;;;;;28.48;16.75;;;;;;;5.55;nan;101349.88;5026367;28;20032;-48
2022/04/23 05:18:24;;;;;;;26.80;16.42;;;;;;;5.62;nan;101348.06;5019364;28;20025;-49
2022/04/23 05:20:50;;;;;;;27.75;17.90;;;;;;;5.69;nan;101340.91;5022272;28;20053;-48
2022/04/23 05:23:16;;;;;;;27.85;17.27;;;;;;;5.76;nan;101347.09;5025173;28;20060;-48
2022/04/23 05:25:41;;;;;;;25.13;16.88;;;;;;;5.85;nan;101344.22;5021595;28;20033;-50
2022/04/23 05:28:07;;;;;;;28.05;17.98;;;;;;;5.93;nan;101342.25;5021575;28;20058;-45
2022/04/23 05:30:37;;;;;;;28.83;18.05;;;;;;;6.01;nan;101341.22;5022523;28;20087;-47
2022/04/23 05:33:03;;;;;;;23.73;15.60;;;;;;;6.12;nan;101337.97;5024268;28;20390;-47
2022/04/23 05:35:29;;;;;;;24.80;16.83;;;;;;;6.23;nan;101341.84;5021837;28;20215;-47
2022/04/23 05:37:54;;;;;;;25.00;16.52;;;;;;;6.30;nan;101340.81;5023135;28;20037;-46
2022/04/23 05:40:20;;;;;;;21.95;15.18;;;;;;;6.41;nan;101338.53;5022670;28;20026;-48
2022/04/23 05:42:45;;;;;;;24.98;16.40;;;;;;;6.50;nan;101343.47;5019405;28;20076;-51
2022/04/23 05:45:11;;;;;;;26.08;16.10;;;;;;;6.61;nan;101336.69;5025152;28;20077;-48
2022/04/23 05:47:41;;;;;;;24.42;16.58;;;;;;;6.69;nan;101340.97;5019136;28;20458;-48
2022/04/23 05:50:07;;;;;;;27.00;16.00;;;;;;;6.80;nan;101338.47;5023405;28;20120;-47
2022/04/23 05:52:32;;;;;;;24.17;15.55;;;;;;;6.91;nan;101351.16;5021249;28;20132;-47
2022/04/23 05:54:58;;;;;;;23.10;15.43;;;;;;;7.03;nan;101347.88;5023141;28;20116;-45
2022/04/23 05:57:23;;;;;;;27.63;16.17;;;;;;;7.16;nan;101353.13;5023071;28;20391;-46
2022/04/23 05:59:49;;;;;;;24.92;15.70;;;;;;;7.27;nan;101345.31;5022433;28;20489;-48
2022/04/23 06:02:14;;;;;;;25.42;15.85;;;;;;;7.39;nan;101348.13;5023107;28;20307;-46
2022/04/23 06:04:40;;;;;;;23.00;15.55;;;;;;;7.52;nan;101340.06;5023909;28;20060;-45
2022/04/23 06:07:06;;;;;;;26.33;16.00;;;;;;;7.64;nan;101342.06;5022940;28;20029;-48
2022/04/23 06:09:31;;;;;;;23.88;15.43;;;;;;;7.75;nan;101346.72;5022369;28;20036;-49
2022/04/23 06:11:57;;;;;;;21.15;14.02;;;;;;;7.86;nan;101349.50;5024474;28;20475;-46
2022/04/23 06:14:22;;;;;;;21.55;13.50;;;;;;;7.99;nan;101347.78;5021511;28;20342;-46
2022/04/23 06:16:48;;;;;;;22.08;14.73;;;;;;;8.12;nan;101348.50;5023276;28;20025;-48
2022/04/23 06:19:13;;;;;;;23.15;13.52;;;;;;;8.24;nan;101350.47;5023338;28;20079;-46
2022/04/23 06:21:39;;;;;;;20.90;13.02;;;;;;;8.33;nan;101354.50;5023139;28;20044;-48
2022/04/23 06:24:05;;;;;;;20.35;13.35;;;;;;;8.46;nan;101354.44;5020299;28;20033;-46
2022/04/23 06:26:31;;;;;;;22.70;13.82;;;;;;;8.58;nan;101351.84;5017257;28;20041;-47
2022/04/23 06:28:58;;;;;;;20.13;12.70;;;;;;;8.69;nan;101353.81;5021146;28;20056;-47
2022/04/23 06:31:23;;;;;;;22.15;12.77;;;;;;;8.83;nan;101349.16;5021504;28;20037;-47
2022/04/23 06:33:49;;;;;;;17.00;12.02;;;;;;;8.96;nan;101346.31;5022790;28;20087;-48
2022/04/23 06:36:14;;;;;;;20.58;13.80;;;;;;;9.10;nan;101350.47;5020271;28;20034;-47
2022/04/23 06:38:40;;;;;;;20.20;12.80;;;;;;;9.23;nan;101344.97;5022434;28;20021;-49
2022/04/23 06:41:05;;;;;;;20.20;13.00;;;;;;;9.39;nan;101341.69;5023693;28;20462;-47
2022/04/23 06:43:31;;;;;;;18.45;11.93;;;;;;;9.52;nan;101342.56;5021562;28;20124;-48
2022/04/23 06:45:57;;;;;;;15.45;12.13;;;;;;;9.63;nan;101345.28;5021825;28;20031;-48
2022/04/23 06:48:23;;;;;;;17.45;11.77;;;;;;;9.76;nan;101346.94;5023691;28;20029;-48
2022/04/23 06:50:48;;;;;;;17.30;11.68;;;;;;;9.88;nan;101347.81;5021276;28;20032;-50
2022/04/23 06:53:13;;;;;;;16.92;11.45;;;;;;;10.02;nan;101350.28;5023473;28;20087;-46
2022/04/23 06:55:39;;;;;;;16.83;11.05;;;;;;;10.14;nan;101351.94;5020215;28;20048;-49
2022/04/23 06:58:05;;;;;;;16.60;10.82;;;;;;;10.28;nan;101341.88;5020022;28;20543;-47
2022/04/23 07:00:30;;;;;;;17.98;11.65;;;;;;;10.41;nan;101338.13;5018488;28;20124;-48
2022/04/23 07:02:56;;;;;;;15.32;10.35;;;;;;;10.54;nan;101338.72;5018905;28;20032;-46
2022/04/23 07:05:22;;;;;;;13.38;10.23;;;;;;;10.72;nan;101339.63;5018813;28;20470;-47
2022/04/23 07:08:01;;;;;;;13.35;10.20;;;;;;;10.89;nan;101332.50;5020435;28;20034;-48
2022/04/23 07:10:29;;;;;;;15.73;9.07;;;;;;;11.06;nan;101341.47;5022827;28;20104;-49
2022/04/23 07:12:55;;;;;;;13.23;9.30;;;;;;;11.19;nan;101337.72;5022124;28;20091;-48
2022/04/23 07:15:22;;;;;;;13.32;8.93;;;;;;;11.33;nan;101338.25;5021166;28;20033;-48
2022/04/23 07:17:48;;;;;;;12.45;9.18;;;;;;;11.45;nan;101337.13;5022728;28;20029;-46
2022/04/23 07:20:16;;;;;;;13.98;9.48;;;;;;;11.57;nan;101339.78;5020442;28;20021;-48
2022/04/23 07:24:02;;;;;;;13.13;9.45;;;;;;;11.62;nan;101334.50;5022016;28;20049;-45
2022/04/23 07:25:28;;;;;;;13.85;8.55;;;;;;;11.74;nan;101342.50;5021628;28;20033;-46
2022/04/23 07:27:53;;;;;;;13.60;9.52;;;;;;;11.91;nan;101334.50;5023173;28;20482;-50
2022/04/23 07:30:19;;;;;;;12.57;8.75;;;;;;;12.10;nan;101338.59;5023626;28;20025;-47
2022/04/23 07:32:44;;;;;;;10.02;7.72;;;;;;;12.27;nan;101328.66;5016438;28;20059;-46
2022/04/23 07:37:54;;;;;;;13.48;8.18;;;;;;;12.58;nan;101331.81;5021612;28;20040;-47
2022/04/23 07:40:20;;;;;;;10.75;7.78;;;;;;;12.70;nan;101332.50;5021055;28;20371;-49
2022/04/23 07:42:46;;;;;;;9.20;7.07;;;;;;;12.83;nan;101325.97;5019148;28;20025;-47
2022/04/23 07:45:12;;;;;;;9.18;7.38;;;;;;;12.93;nan;101320.75;5016921;28;20510;-48
2022/04/23 07:47:37;;;;;;;10.10;7.78;;;;;;;13.06;nan;101322.22;5019090;28;20029;-46
2022/04/23 07:50:04;;;;;;;9.98;7.25;;;;;;;13.22;nan;101324.06;5017378;28;20033;-47
2022/04/23 07:52:30;;;;;;;8.73;6.78;;;;;;;13.38;nan;101317.78;5019811;28;20038;-48
2022/04/23 07:54:56;;;;;;;11.10;7.53;;;;;;;13.55;nan;101317.72;5019303;28;20037;-49
2022/04/23 07:57:22;;;;;;;8.32;6.75;;;;;;;13.72;nan;101323.00;5019899;28;20053;-46
2022/04/23 07:59:48;;;;;;;8.52;7.10;;;;;;;13.86;nan;101316.13;5020976;28;20612;-46
2022/04/23 08:02:13;;;;;;;11.88;7.10;;;;;;;14.03;nan;101319.50;5020112;28;20025;-46
2022/04/23 08:04:39;;;;;;;9.80;7.03;;;;;;;14.17;nan;101319.88;5019860;28;20143;-47
2022/04/23 08:07:04;;;;;;;9.93;7.05;;;;;;;14.28;nan;101310.00;5023239;28;20025;-45
2022/04/23 08:09:31;;;;;;;12.45;8.15;;;;;;;14.39;nan;101311.69;5022864;28;20109;-47
2022/04/23 08:11:57;;;;;;;10.20;7.40;;;;;;;14.52;nan;101322.84;5025875;28;20461;-46
2022/04/23 08:14:22;;;;;;;12.80;7.55;;;;;;;14.67;nan;101307.84;5024599;28;20063;-46
2022/04/23 08:16:49;;;;;;;11.38;7.35;;;;;;;14.78;nan;101313.03;5026117;28;20151;-48
2022/04/23 08:19:17;;;;;;;9.73;7.38;;;;;;;14.83;nan;101306.84;5025947;28;20014;-45
2022/04/23 08:21:43;;;;;;;10.73;6.90;;;;;;;14.91;nan;101305.53;5024410;28;20057;-46
2022/04/23 08:24:08;;;;;;;9.77;7.25;;;;;;;15.02;nan;101307.19;5026406;28;20469;-49
2022/04/23 08:26:34;;;;;;;9.82;6.88;;;;;;;15.11;nan;101309.13;5023970;28;20025;-47
2022/04/23 08:31:43;;;;;;;7.20;5.95;;;;;;;15.43;nan;101302.72;5026097;28;20052;-46
2022/04/23 08:34:09;;;;;;;8.82;6.18;;;;;;;15.61;nan;101304.13;5027488;28;20033;-47
2022/04/23 08:36:38;;;;;;;9.40;6.72;;;;;;;15.76;nan;101309.56;5017764;28;20025;-51
2022/04/23 08:39:06;;;;;;;43.53;27.45;;;;;;;15.87;nan;101305.81;5024591;28;20467;-45
2022/04/23 08:41:34;;;;;;;18.65;13.40;;;;;;;15.97;nan;101305.78;5025441;28;20037;-47
2022/04/23 08:44:07;;;;;;;15.30;10.93;;;;;;;16.07;nan;101301.47;5028020;28;20116;-47
2022/04/23 08:46:36;;;;;;;12.27;8.77;;;;;;;16.18;nan;101292.28;5027522;28;20109;-47
2022/04/23 08:49:14;;;;;;;11.07;7.78;;;;;;;16.18;nan;101300.41;5024579;28;20543;-48
2022/04/23 08:51:43;;;;;;;8.98;7.20;;;;;;;16.31;nan;101306.03;5023462;28;20501;-46
2022/04/23 08:54:10;;;;;;;9.75;7.78;;;;;;;16.46;nan;101293.59;5024878;28;20025;-46
2022/04/23 08:56:37;;;;;;;9.38;7.38;;;;;;;16.59;nan;101288.41;5023949;28;20125;-48
2022/04/23 08:59:06;;;;;;;11.32;7.80;;;;;;;16.74;nan;101286.78;5029284;28;20534;-46
2022/04/23 09:01:33;;;;;;;8.38;7.10;;;;;;;16.87;nan;101288.88;5024728;28;20039;-46
2022/04/23 09:03:59;;;;;;;9.02;6.75;;;;;;;16.89;nan;101289.44;5025095;28;20026;-45
2022/04/23 09:06:35;;;;;;;9.15;7.80;;;;;;;16.93;nan;101276.97;5025582;28;20068;-48
2022/04/23 09:09:19;;;;;;;8.00;7.00;;;;;;;17.06;nan;101279.09;5025258;28;20033;-48
2022/04/23 09:11:50;;;;;;;8.77;6.77;;;;;;;17.20;nan;101284.69;5028768;28;20058;-46
2022/04/23 09:14:45;;;;;;;8.18;6.90;;;;;;;17.22;nan;101271.66;5023598;28;20400;-48
2022/04/23 09:25:37;;;;;;;7.65;6.22;;;;;;;17.72;nan;101267.84;5025784;28;20040;-48
2022/04/23 09:28:20;;;;;;;8.70;6.65;;;;;;;17.69;nan;101265.69;5026215;28;20392;-48
2022/04/23 09:30:50;;;;;;;7.72;6.93;;;;;;;17.60;nan;101261.97;5025778;28;20017;-47
2022/04/23 09:33:16;;;;;;;8.85;7.18;;;;;;;17.53;nan;101264.16;5025903;28;20033;-47
2022/04/23 09:35:56;;;;;;;9.45;7.60;;;;;;;17.33;nan;101261.59;5026349;28;20048;-45
2022/04/23 09:38:22;;;;;;;7.28;6.47;;;;;;;17.31;nan;101252.94;5026595;28;20107;-46
2022/04/23 09:40:56;;;;;;;8.13;7.25;;;;;;;17.43;nan;101250.69;5023330;28;20028;-45
2022/04/23 09:43:30;;;;;;;9.20;7.10;;;;;;;17.64;nan;101254.88;5018824;28;20037;-49
2022/04/23 09:46:07;;;;;;;8.15;6.90;;;;;;;17.71;nan;101249.16;5025652;28;20033;-48
2022/04/23 09:48:33;;;;;;;9.30;7.25;;;;;;;17.77;nan;101253.44;5024244;28;20029;-46
2022/04/23 09:51:00;;;;;;;7.57;6.65;;;;;;;17.89;nan;101239.53;5023838;28;20036;-48
2022/04/23 09:53:30;;;;;;;8.20;6.97;;;;;;;18.07;nan;101238.81;5027483;28;20033;-46
2022/04/23 09:56:00;;;;;;;7.32;6.53;;;;;;;18.28;nan;101242.91;5021900;28;20105;-48
2022/04/23 09:58:29;;;;;;;7.25;6.47;;;;;;;18.37;nan;101243.13;5037977;23;20024;-49
2022/04/23 10:00:56;;;;;;;7.53;6.72;;;;;;;18.35;nan;101245.31;5027924;28;20091;-50
2022/04/23 10:03:28;;;;;;;8.65;6.72;;;;;;;18.21;nan;101239.75;5027351;28;20029;-48
2022/04/23 10:05:54;;;;;;;7.53;6.32;;;;;;;18.20;nan;101240.03;5028929;28;20033;-46
2022/04/23 10:08:26;;;;;;;7.95;6.78;;;;;;;18.23;nan;101244.88;5030294;28;20041;-51
2022/04/23 10:10:51;;;;;;;8.38;6.90;;;;;;;18.44;nan;101235.44;5047874;28;20077;-47
2022/04/23 10:13:19;;;;;;;7.97;7.07;;;;;;;18.56;nan;101235.84;5044458;28;20108;-48
2022/04/23 10:15:47;;;;;;;9.05;7.35;;;;;;;18.62;nan;101244.72;5044896;28;20066;-49
2022/04/23 10:18:13;;;;;;;8.43;6.35;;;;;;;18.68;nan;101249.03;5045219;28;20217;-46
2022/04/23 10:20:40;;;;;;;8.70;5.95;;;;;;;18.71;nan;101243.03;5043746;28;20135;-49
2022/04/23 10:23:22;;;;;;;8.00;5.65;;;;;;;18.74;nan;101245.16;5037515;28;20384;-49
2022/04/23 10:25:53;;;;;;;9.48;5.65;;;;;;;18.75;nan;101235.91;5040936;28;20036;-47
2022/04/23 10:28:19;;;;;;;6.25;5.53;;;;;;;18.73;nan;101238.13;5043791;28;20025;-49
2022/04/23 10:30:46;;;;;;;5.72;5.13;;;;;;;18.65;nan;101231.41;5043716;28;20044;-46
2022/04/23 10:33:28;;;;;;;6.43;5.10;;;;;;;18.71;nan;101227.56;5044024;28;20040;-50
2022/04/23 10:36:06;;;;;;;6.57;5.10;;;;;;;19.00;nan;101218.47;5041701;28;20029;-46
2022/04/23 10:38:31;;;;;;;7.25;5.15;;;;;;;19.26;nan;101224.34;5048345;28;20097;-47
2022/04/23 10:40:57;;;;;;;6.32;4.25;;;;;;;19.29;nan;101223.75;5045565;28;20488;-48
2022/04/23 10:43:24;;;;;;;10.40;4.10;;;;;;;19.19;nan;101219.28;5044298;28;20041;-49
2022/04/23 10:45:50;;;;;;;4.80;3.63;;;;;;;19.07;nan;101215.41;5044905;28;20021;-47
2022/04/23 10:48:24;;;;;;;5.63;3.67;;;;;;;18.95;nan;101216.63;5042503;28;20037;-51
2022/04/23 10:51:20;;;;;;;8.60;5.45;;;;;;;18.91;nan;101210.19;5044444;28;20032;-47
2022/04/23 10:53:48;;;;;;;7.60;5.00;;;;;;;19.08;nan;101214.31;5046683;28;20571;-49
2022/04/23 10:56:16;;;;;;;5.45;4.07;;;;;;;19.28;nan;101208.56;5040321;28;20036;-47
2022/04/23 10:58:42;;;;;;;28.25;18.75;;;;;;;19.53;nan;101204.63;5043954;28;20093;-49
2022/04/23 11:01:21;;;;;;;53.75;30.48;;;;;;;19.78;nan;101203.44;5035630;28;20024;-49
2022/04/23 11:03:55;;;;;;;32.13;20.23;;;;;;;19.96;nan;101208.00;5039978;28;21206;-50
2022/04/23 11:12:22;;;;;;;70.45;41.42;;;;;;;19.86;nan;101192.66;5041398;28;20308;-48
2022/04/23 11:14:53;;;;;;;50.47;29.33;;;;;;;19.87;nan;101193.47;5040030;28;20121;-52
2022/04/23 11:17:31;;;;;;;71.22;42.88;;;;;;;19.88;nan;101190.47;5044613;28;20033;-51
2022/04/23 11:19:57;;;;;;;48.55;30.10;;;;;;;19.92;nan;101190.66;5039708;28;20510;-49
2022/04/23 11:22:23;;;;;;;36.22;24.75;;;;;;;19.97;nan;101192.50;5044860;28;20033;-51
2022/04/23 11:24:51;;;;;;;12.55;9.00;;;;;;;20.08;nan;101185.75;5038167;28;20450;-50
2022/04/23 11:27:27;;;;;;;14.80;9.48;;;;;;;20.16;nan;101183.16;5043226;28;20021;-52
2022/04/23 11:29:54;;;;;;;7.35;6.30;;;;;;;20.42;nan;101182.66;5041334;28;20487;-49
2022/04/23 11:32:27;;;;;;;8.88;5.47;;;;;;;20.59;nan;101177.41;5041851;28;20032;-49
2022/04/23 11:35:01;;;;;;;5.38;4.55;;;;;;;20.76;nan;101172.13;5040985;28;20703;-49
2022/04/23 11:37:37;;;;;;;7.18;4.68;;;;;;;20.88;nan;101162.63;5044746;28;20035;-48
2022/04/23 11:40:11;;;;;;;4.95;4.45;;;;;;;20.96;nan;101162.69;5041354;28;20091;-46
2022/04/23 11:42:37;;;;;;;;;;;;;;;20.98;nan;101168.63;5043803;28;20057;-49
2022/04/23 11:45:03;;;;;;;4.72;4.25;;;;;;;21.06;nan;101161.66;5045829;28;20377;-48
2022/04/23 11:47:30;;;;;;;4.82;4.00;;;;;;;21.03;nan;101156.84;5044394;28;20033;-47
2022/04/23 11:50:17;;;;;;;6.50;4.22;;;;;;;21.07;nan;101149.66;5045833;28;20398;-47
2022/04/23 11:52:45;;;;;;;4.40;4.00;;;;;;;21.17;nan;101143.94;5046930;28;20584;-51
2022/04/23 11:55:22;;;;;;;5.13;3.97;;;;;;;21.30;nan;101148.56;5046299;28;20429;-48
2022/04/23 11:58:04;;;;;;;5.55;4.75;;;;;;;21.40;nan;101147.53;5045327;28;20055;-51
2022/04/23 12:00:33;;;;;;;6.82;4.55;;;;;;;21.47;nan;101147.06;5042228;28;20039;-49